Terminal Aerodrome Forecast
Issued by NWS

Home | Current Version | Previous Version | Graphics & Text | Print | Product List | Glossary On
Versions: 1 2 3 4 5 6 7 8 9 10 11 12 13 14 15 16 17 18 19
000
FTUS43 KICT 220520
TAFCNU
TAF
KCNU 220520Z 2206/2306 01008KT 6SM -SHRA OVC040
      TEMPO 2206/2210 4SM -SHRA BR
     FM221200 02010KT 6SM -SHRA OVC015
     FM221700 02011KT P6SM VCSH OVC025
     FM222000 03008KT P6SM VCSH OVC035
     FM230000 02010KT P6SM OVC045=

USA.gov is the U.S. government's official web portal to all federal, state and local government web resources and services.